Time;durP1;ratioP1;P1;durP2;ratioP2;P2;SDS_P1;SDS_P2;PMS_P1;PMS_P2;Temp;Humidity;BMP_temperature;BMP_pressure;BME280_temperature;BME280_humidity;BME280_pressure;Samples;Min_cycle;Max_cycle;Signal;HPM_P1;HPM_P2
2022/06/07 00:03:53;;;;;;;16.60;8.40;;;;;;;22.60;52.71;98884.94;233512;1217;139535;-61
2022/06/07 00:08:56;;;;;;;15.00;8.40;;;;;;;22.62;52.96;98889.73;233258;1216;139630;-60
2022/06/07 00:13:59;;;;;;;13.60;7.80;;;;;;;22.59;53.05;98883.63;233454;1217;139541;-60
2022/06/07 00:19:03;;;;;;;15.50;8.40;;;;;;;22.55;53.14;98882.27;233475;1217;140169;-60
2022/06/07 00:24:06;;;;;;;14.40;8.10;;;;;;;22.51;53.31;98884.94;233448;1217;139703;-60
2022/06/07 00:29:09;;;;;;;15.10;8.50;;;;;;;22.46;53.40;98881.71;233512;1217;139768;-61
2022/06/07 00:34:12;;;;;;;12.20;8.40;;;;;;;22.38;53.42;98884.77;233380;1216;139395;-59
2022/06/07 00:39:15;;;;;;;14.60;8.70;;;;;;;22.33;53.58;98878.05;233461;1217;140003;-62
2022/06/07 00:44:21;;;;;;;14.20;8.20;;;;;;;22.29;53.62;98870.06;233226;1217;138537;-62
2022/06/07 00:49:32;;;;;;;12.10;7.40;;;;;;;22.22;53.72;98872.15;233727;1217;138877;-60
2022/06/07 00:54:36;;;;;;;15.20;8.30;;;;;;;22.10;53.70;98867.10;233818;1217;139503;-60
2022/06/07 00:59:59;;;;;;;14.80;8.50;;;;;;;21.98;53.93;98866.98;233769;1217;140025;-63
2022/06/07 01:05:04;;;;;;;18.20;7.90;;;;;;;21.90;54.09;98865.48;233344;1217;139702;-61
2022/06/07 01:15:31;;;;;;;10.40;7.30;;;;;;;21.72;54.42;98866.84;233614;1217;139429;-60
2022/06/07 01:20:37;;;;;;;15.30;8.10;;;;;;;21.70;54.52;98860.17;233627;1217;139046;-60
2022/06/07 01:25:40;;;;;;;15.90;8.30;;;;;;;21.73;54.79;98866.69;233398;1217;139083;-60
2022/06/07 01:30:43;;;;;;;12.80;7.00;;;;;;;21.75;54.88;98865.64;233455;1217;138685;-60
2022/06/07 01:35:48;;;;;;;11.50;7.40;;;;;;;21.68;54.88;98858.80;233540;1215;139519;-61
2022/06/07 01:46:15;;;;;;;10.10;7.20;;;;;;;21.45;55.10;98854.85;233654;1216;138920;-61
2022/06/07 01:51:18;;;;;;;9.90;7.10;;;;;;;21.35;55.31;98858.66;233584;1217;138919;-59
2022/06/07 01:56:22;;;;;;;9.90;7.20;;;;;;;21.25;55.52;98853.76;233722;1217;139210;-62
2022/06/07 02:01:27;;;;;;;13.20;7.40;;;;;;;21.17;55.76;98854.45;233689;1217;140182;-60
2022/06/07 02:06:31;;;;;;;9.90;7.30;;;;;;;21.10;55.84;98844.74;233387;1217;139115;-60
2022/06/07 02:11:37;;;;;;;11.10;7.40;;;;;;;21.10;56.08;98854.18;233411;1216;139344;-61
2022/06/07 02:16:42;;;;;;;11.50;7.90;;;;;;;21.04;56.28;98852.79;233556;1217;139113;-61
2022/06/07 02:21:45;;;;;;;17.90;9.50;;;;;;;21.00;56.36;98841.31;233973;1217;138636;-61
2022/06/07 02:26:52;;;;;;;14.90;8.40;;;;;;;20.98;56.48;98837.59;233579;1217;138750;-61
2022/06/07 02:32:02;;;;;;;14.70;9.00;;;;;;;20.91;56.62;98836.66;233696;1217;138774;-60
2022/06/07 02:37:07;;;;;;;12.50;8.40;;;;;;;20.83;56.66;98835.23;233434;1217;139078;-60
2022/06/07 02:42:12;;;;;;;12.80;8.50;;;;;;;20.76;56.71;98838.06;233536;1217;138659;-60
2022/06/07 02:47:16;;;;;;;10.70;7.80;;;;;;;20.64;56.95;98834.36;233709;1217;139711;-58
2022/06/07 02:52:23;;;;;;;12.10;8.10;;;;;;;20.61;57.02;98839.22;233756;1217;139577;-59
2022/06/07 02:57:41;;;;;;;14.30;8.70;;;;;;;20.59;57.33;98843.61;233788;1217;140631;-59
2022/06/07 03:02:45;;;;;;;14.30;9.10;;;;;;;20.58;57.47;98843.50;233735;1216;138899;-59
2022/06/07 03:07:49;;;;;;;12.30;9.00;;;;;;;20.56;57.51;98838.16;233433;1217;138833;-58
2022/06/07 03:12:53;;;;;;;12.40;9.30;;;;;;;20.57;57.60;98840.08;233500;1217;138789;-59
2022/06/07 03:17:58;;;;;;;;;;;;;;;20.50;57.82;98837.30;233713;1215;139412;-60
2022/06/07 03:23:08;;;;;;;16.40;10.30;;;;;;;20.46;57.89;98837.75;233796;1217;126418;-58
2022/06/07 03:28:12;;;;;;;17.40;11.10;;;;;;;20.45;58.16;98844.37;233299;1216;139554;-59
2022/06/07 03:33:15;;;;;;;15.50;12.10;;;;;;;20.46;58.30;98844.73;233166;1217;139546;-58
2022/06/07 03:38:19;;;;;;;17.70;13.20;;;;;;;20.55;58.55;98841.50;233157;1216;140076;-60
2022/06/07 03:43:23;;;;;;;22.50;13.40;;;;;;;20.62;58.69;98834.59;233565;1217;139935;-60
2022/06/07 03:48:26;;;;;;;19.10;13.60;;;;;;;20.75;58.85;98838.08;233317;1217;139744;-59
2022/06/07 03:53:30;;;;;;;21.20;13.10;;;;;;;20.87;58.81;98837.30;233670;1217;139720;-59
2022/06/07 03:58:34;;;;;;;20.00;13.30;;;;;;;20.96;58.70;98832.69;232750;1217;139193;-60
2022/06/07 04:03:37;;;;;;;17.40;13.40;;;;;;;21.04;58.82;98825.92;233714;1217;138823;-59
2022/06/07 04:08:41;;;;;;;19.40;12.80;;;;;;;21.13;58.81;98822.41;233806;1215;139031;-60
2022/06/07 04:13:44;;;;;;;59.80;51.20;;;;;;;21.29;58.81;98821.52;232931;1215;141343;-60
2022/06/07 04:18:49;;;;;;;17.60;12.80;;;;;;;21.43;58.90;98825.23;233578;1217;139501;-61
2022/06/07 04:23:54;;;;;;;21.40;15.70;;;;;;;21.56;58.79;98821.10;232430;1216;139477;-60
2022/06/07 04:28:59;;;;;;;34.60;27.60;;;;;;;21.63;58.65;98815.14;232541;1216;139020;-58
2022/06/07 04:34:02;;;;;;;22.40;13.20;;;;;;;21.66;58.49;98813.50;233687;1217;139350;-59
2022/06/07 04:39:07;;;;;;;18.30;12.40;;;;;;;21.69;58.43;98816.79;233598;1217;140935;-59
2022/06/07 04:44:30;;;;;;;81.90;69.20;;;;;;;21.72;58.38;98816.27;233320;1217;139066;-59
2022/06/07 04:49:33;;;;;;;21.30;12.40;;;;;;;21.79;58.36;98817.07;233310;1217;139883;-58
2022/06/07 04:54:37;;;;;;;42.10;34.50;;;;;;;21.89;58.39;98821.35;232523;1217;139585;-59
2022/06/07 04:59:41;;;;;;;29.60;24.00;;;;;;;22.01;58.24;98824.61;233566;1217;140336;-60
2022/06/07 05:04:45;;;;;;;17.20;11.40;;;;;;;22.05;58.06;98825.96;233628;1217;138776;-59
2022/06/07 05:09:58;;;;;;;13.20;11.10;;;;;;;22.08;57.70;98824.72;233616;1217;139687;-59
2022/06/07 05:15:08;;;;;;;69.90;58.80;;;;;;;22.11;57.66;98827.95;232231;1217;139022;-61
2022/06/07 05:20:21;;;;;;;19.30;11.10;;;;;;;22.13;57.75;98823.58;233624;1217;139605;-59
2022/06/07 05:25:27;;;;;;;11.90;8.50;;;;;;;22.19;57.56;98828.00;233603;1217;139105;-59
2022/06/07 05:30:30;;;;;;;9.80;7.80;;;;;;;22.17;57.49;98832.70;233629;1216;138706;-59
2022/06/07 05:35:43;;;;;;;10.80;6.70;;;;;;;22.21;57.24;98835.68;233563;1217;138909;-59
2022/06/07 05:40:54;;;;;;;10.30;7.10;;;;;;;22.27;57.16;98834.25;233628;1217;139180;-60
2022/06/07 05:45:59;;;;;;;10.30;7.10;;;;;;;22.40;57.19;98834.23;233730;1215;138961;-59
2022/06/07 05:51:14;;;;;;;12.60;7.60;;;;;;;22.48;57.04;98825.64;233017;1217;139936;-61
2022/06/07 05:56:17;;;;;;;10.60;7.10;;;;;;;22.57;56.85;98830.84;233447;1217;140096;-61
2022/06/07 06:01:22;;;;;;;9.10;6.70;;;;;;;22.62;56.43;98831.35;233587;1217;139285;-63
2022/06/07 06:06:28;;;;;;;11.50;6.40;;;;;;;22.63;56.38;98832.80;233542;1217;139436;-59
2022/06/07 06:11:32;;;;;;;11.80;7.20;;;;;;;22.69;56.29;98833.96;233276;1217;139435;-60
2022/06/07 06:16:54;;;;;;;28.40;21.80;;;;;;;22.77;56.26;98830.69;232994;1216;139008;-62
2022/06/07 06:22:05;;;;;;;24.60;18.40;;;;;;;22.84;56.09;98825.46;232986;1217;139502;-60
2022/06/07 06:27:11;;;;;;;11.70;7.10;;;;;;;22.90;55.93;98819.64;233562;1217;139678;-63
2022/06/07 06:32:17;;;;;;;8.40;6.10;;;;;;;22.97;55.79;98819.75;233662;1216;138783;-61
2022/06/07 06:37:21;;;;;;;13.00;4.80;;;;;;;23.05;55.68;98824.92;233717;1217;139269;-63
2022/06/07 06:42:24;;;;;;;7.10;4.90;;;;;;;23.11;55.42;98815.92;233023;1215;138819;-59
2022/06/07 06:47:48;;;;;;;11.50;5.10;;;;;;;23.21;55.09;98819.07;233269;1216;139038;-61
2022/06/07 06:52:52;;;;;;;7.60;3.70;;;;;;;23.27;54.75;98810.49;233091;1217;139255;-62
2022/06/07 06:57:56;;;;;;;5.40;3.90;;;;;;;23.35;54.11;98809.59;233717;1217;138759;-60
2022/06/07 07:02:59;;;;;;;7.00;3.70;;;;;;;23.42;53.73;98808.61;233478;1217;138598;-60
2022/06/07 07:08:10;;;;;;;4.00;2.80;;;;;;;23.48;53.61;98801.56;233604;1216;139722;-64
2022/06/07 07:13:14;;;;;;;7.10;3.20;;;;;;;23.49;53.33;98790.80;233236;1217;139271;-63
2022/06/07 07:18:17;;;;;;;4.80;2.80;;;;;;;23.59;53.06;98790.60;233508;1217;138709;-63
2022/06/07 07:23:25;;;;;;;67.70;56.50;;;;;;;23.68;53.04;98791.30;233572;1217;139025;-63
2022/06/07 07:28:29;;;;;;;8.30;4.70;;;;;;;23.81;52.89;98793.39;232362;1216;139941;-61
2022/06/07 07:33:33;;;;;;;4.20;3.40;;;;;;;23.91;52.74;98793.83;233632;1217;139458;-61
2022/06/07 07:38:37;;;;;;;;;;;;;;;24.02;52.63;98782.16;233494;1216;138723;-61
2022/06/07 07:43:40;;;;;;;167.90;127.40;;;;;;;24.09;52.40;98774.40;232945;1215;125210;-61
2022/06/07 07:48:45;;;;;;;14.00;10.20;;;;;;;24.18;52.26;98775.65;233602;1216;139492;-62
2022/06/07 07:53:48;;;;;;;14.20;9.60;;;;;;;24.30;52.26;98766.25;233681;1216;139234;-64
2022/06/07 07:58:54;;;;;;;;;;;;;;;24.43;51.96;98766.04;233674;1217;138554;-59
2022/06/07 08:04:00;;;;;;;6.90;3.50;;;;;;;24.52;51.66;98765.13;233808;1217;125989;-63
2022/06/07 08:09:18;;;;;;;4.30;3.00;;;;;;;24.63;51.24;98753.23;233732;1215;140580;-65
2022/06/07 08:14:23;;;;;;;4.50;3.10;;;;;;;24.75;50.82;98750.91;233575;1217;140139;-65
2022/06/07 08:19:26;;;;;;;5.80;3.30;;;;;;;24.90;50.58;98756.95;233666;1217;139518;-61
2022/06/07 08:24:29;;;;;;;5.90;3.00;;;;;;;24.94;50.22;98758.81;233626;1217;139962;-58
2022/06/07 08:29:32;;;;;;;3.50;3.20;;;;;;;24.92;49.99;98753.21;233749;1217;138771;-60
2022/06/07 08:39:57;;;;;;;4.20;3.00;;;;;;;25.15;50.04;98754.68;233727;1217;138837;-62
2022/06/07 08:45:02;;;;;;;7.90;3.00;;;;;;;25.25;49.53;98749.36;233644;1217;138728;-62
2022/06/07 08:50:33;;;;;;;6.30;3.30;;;;;;;25.31;48.90;98742.02;233570;1216;138547;-62
2022/06/07 08:55:46;;;;;;;8.30;3.20;;;;;;;25.42;48.79;98733.11;233642;1216;138990;-63
2022/06/07 09:00:57;;;;;;;5.70;2.90;;;;;;;25.56;48.66;98735.48;233488;1217;139434;-62
2022/06/07 09:06:05;;;;;;;9.00;7.30;;;;;;;25.65;48.65;98730.75;233735;1215;139273;-61
2022/06/07 09:16:42;;;;;;;7.60;3.10;;;;;;;25.76;47.81;98720.39;233531;1217;139105;-62
2022/06/07 09:21:45;;;;;;;5.90;2.90;;;;;;;25.85;47.40;98723.73;233711;1216;138597;-61
2022/06/07 09:26:49;;;;;;;119.80;106.20;;;;;;;25.89;47.32;98719.30;233666;1216;139109;-61
2022/06/07 09:31:52;;;;;;;17.50;11.00;;;;;;;26.02;47.32;98716.95;233649;1215;139848;-61
2022/06/07 09:37:02;;;;;;;7.90;5.20;;;;;;;26.16;47.19;98715.34;233386;1215;139574;-62
2022/06/07 09:42:05;;;;;;;5.60;3.00;;;;;;;26.33;46.93;98708.94;233544;1216;138516;-62
2022/06/07 09:47:21;;;;;;;8.50;3.40;;;;;;;26.48;46.38;98710.61;233584;1217;139352;-62
2022/06/07 09:52:31;;;;;;;6.70;3.60;;;;;;;26.51;45.94;98702.56;233675;1217;138901;-63
2022/06/07 09:57:34;;;;;;;4.70;3.20;;;;;;;26.57;45.57;98696.91;233670;1217;138930;-62
2022/06/07 10:02:51;;;;;;;8.70;4.00;;;;;;;26.69;45.75;98692.35;233664;1217;139189;-62
2022/06/07 10:08:39;;;;;;;6.00;2.90;;;;;;;26.87;45.67;98684.73;233561;1217;141685;-63
2022/06/07 10:13:59;;;;;;;5.70;3.90;;;;;;;27.10;45.24;98676.67;233467;1216;139959;-62
2022/06/07 10:19:11;;;;;;;7.40;3.50;;;;;;;27.31;45.13;98672.16;233720;1217;139833;-62
2022/06/07 10:24:38;;;;;;;7.70;3.20;;;;;;;27.56;44.74;98670.81;233600;1216;138620;-61
2022/06/07 10:29:48;;;;;;;3.40;2.30;;;;;;;27.70;44.22;98662.97;233531;1217;139053;-61
2022/06/07 10:35:15;;;;;;;6.30;3.00;;;;;;;27.89;43.95;98657.91;233545;1217;139884;-62
2022/06/07 10:40:45;;;;;;;7.80;3.30;;;;;;;27.86;43.30;98657.34;233511;1217;138870;-62
2022/06/07 10:45:51;;;;;;;8.30;3.70;;;;;;;27.55;42.87;98651.54;233642;1216;140100;-62
2022/06/07 10:50:59;;;;;;;6.30;3.30;;;;;;;27.33;43.06;98644.20;233628;1217;139324;-63
2022/06/07 10:56:22;;;;;;;7.30;3.30;;;;;;;27.52;43.36;98627.21;233445;1217;139618;-63
2022/06/07 11:01:30;;;;;;;7.00;3.50;;;;;;;27.70;43.22;98626.39;233444;1217;138954;-63
2022/06/07 11:12:17;;;;;;;7.20;4.50;;;;;;;28.09;42.72;98617.88;233561;1216;139879;-62
2022/06/07 11:17:55;;;;;;;8.30;4.00;;;;;;;28.23;42.31;98611.41;233601;1217;138798;-62
2022/06/07 11:23:01;;;;;;;13.50;3.70;;;;;;;28.28;41.86;98598.70;233611;1216;139142;-61
2022/06/07 11:28:20;;;;;;;6.80;3.50;;;;;;;28.40;42.10;98594.85;233694;1217;139748;-61
2022/06/07 11:33:38;;;;;;;9.10;3.70;;;;;;;28.66;41.88;98586.77;233649;1216;140277;-61
2022/06/07 11:38:53;;;;;;;6.90;3.60;;;;;;;28.80;41.43;98583.02;233541;1217;138772;-60
2022/06/07 11:43:58;;;;;;;9.80;3.50;;;;;;;29.01;41.33;98580.14;233112;1217;138420;-61
2022/06/07 11:49:24;;;;;;;;;;;;;;;29.14;41.09;98568.83;233370;1217;138953;-62
2022/06/07 11:54:29;;;;;;;8.50;3.10;;;;;;;29.03;40.46;98568.74;233606;1217;124851;-61
2022/06/07 11:59:48;;;;;;;4.60;2.90;;;;;;;29.15;40.42;98560.91;233416;1217;139157;-62
2022/06/07 12:04:57;;;;;;;5.70;2.60;;;;;;;29.30;40.24;98555.95;233663;1217;209556;-60
2022/06/07 12:10:18;;;;;;;3.30;2.60;;;;;;;29.53;40.06;98551.34;232613;1217;138607;-62
2022/06/07 12:15:30;;;;;;;5.70;2.50;;;;;;;29.63;39.65;98543.23;233479;1216;140007;-63
2022/06/07 12:20:40;;;;;;;3.70;2.40;;;;;;;29.70;39.39;98534.16;233242;1217;138721;-60
2022/06/07 12:25:54;;;;;;;3.60;2.40;;;;;;;29.54;38.81;98531.60;233614;1216;138977;-60
2022/06/07 12:31:10;;;;;;;4.90;2.20;;;;;;;29.60;38.91;98527.98;233228;1217;139351;-60
2022/06/07 12:36:35;;;;;;;4.90;2.30;;;;;;;29.72;38.85;98510.96;233472;1217;138700;-61
2022/06/07 12:41:47;;;;;;;9.40;2.60;;;;;;;29.51;38.41;98513.79;233575;1216;139221;-61
2022/06/07 12:46:52;;;;;;;11.30;3.40;;;;;;;29.17;37.95;98515.25;233261;1217;139494;-61
2022/06/07 12:51:59;;;;;;;13.50;10.60;;;;;;;28.85;38.15;98498.44;233099;1217;138839;-61
2022/06/07 12:57:15;;;;;;;7.40;2.80;;;;;;;28.64;38.45;98492.90;233479;1217;139970;-61
2022/06/07 13:02:26;;;;;;;6.60;2.80;;;;;;;28.84;38.88;98496.67;233598;1217;138722;-61
2022/06/07 13:07:31;;;;;;;7.20;2.70;;;;;;;29.14;39.08;98493.17;233637;1217;140408;-61
2022/06/07 13:12:53;;;;;;;4.70;2.40;;;;;;;29.49;38.84;98481.80;233536;1217;139900;-61
2022/06/07 13:18:07;;;;;;;5.10;2.00;;;;;;;29.87;38.12;98481.12;233546;1217;138737;-60
2022/06/07 13:23:33;;;;;;;4.60;2.70;;;;;;;30.19;38.19;98471.43;233751;1217;139132;-62
2022/06/07 13:28:37;;;;;;;4.50;1.80;;;;;;;30.43;37.50;98463.64;233593;1217;139340;-62
2022/06/07 13:33:40;;;;;;;4.10;2.40;;;;;;;30.62;37.09;98448.07;233726;1217;139155;-61
2022/06/07 13:38:44;;;;;;;5.80;2.60;;;;;;;30.51;36.44;98452.36;233311;1217;138771;-62
2022/06/07 13:44:22;;;;;;;7.40;2.50;;;;;;;30.28;36.58;98448.84;233378;1217;138388;-61
2022/06/07 13:54:53;;;;;;;5.70;2.20;;;;;;;29.82;36.78;98442.27;233015;1217;138299;-59
2022/06/07 13:59:59;;;;;;;71.90;61.10;;;;;;;29.55;37.22;98442.01;233385;1217;139129;-59
2022/06/07 14:05:02;;;;;;;7.00;3.60;;;;;;;29.29;37.16;98450.20;233745;1216;139092;-59
2022/06/07 14:10:09;;;;;;;12.00;4.20;;;;;;;29.08;37.57;98449.27;233322;1217;139677;-60
2022/06/07 14:15:13;;;;;;;5.00;2.80;;;;;;;28.85;37.74;98447.41;232476;1217;139391;-61
2022/06/07 14:20:19;;;;;;;6.80;3.50;;;;;;;28.66;37.92;98443.10;233131;1217;138399;-59
2022/06/07 14:25:24;;;;;;;4.10;2.70;;;;;;;28.48;38.08;98447.73;233222;1217;139540;-62
2022/06/07 14:30:28;;;;;;;3.60;3.10;;;;;;;28.27;38.06;98452.94;232599;1217;138884;-59
2022/06/07 14:35:33;;;;;;;6.50;3.20;;;;;;;28.10;38.13;98445.96;232803;1217;139683;-60
2022/06/07 14:40:40;;;;;;;6.00;3.40;;;;;;;27.90;38.34;98444.68;233501;1217;138420;-61
2022/06/07 14:45:57;;;;;;;6.70;3.90;;;;;;;27.71;38.86;98444.55;233557;1217;138776;-61
2022/06/07 14:51:01;;;;;;;9.50;4.20;;;;;;;27.44;39.38;98446.79;233125;1217;138998;-62
2022/06/07 14:56:06;;;;;;;8.40;3.50;;;;;;;27.27;39.91;98441.23;233593;1217;138406;-60
2022/06/07 15:01:14;;;;;;;6.00;3.80;;;;;;;27.15;40.09;98447.27;233470;1217;138649;-60
2022/06/07 15:06:32;;;;;;;7.40;3.90;;;;;;;27.01;40.34;98440.34;232845;1217;139221;-59
2022/06/07 15:11:36;;;;;;;6.90;3.30;;;;;;;26.88;40.83;98443.99;233060;1217;139399;-60
2022/06/07 15:16:43;;;;;;;3.10;2.80;;;;;;;26.76;40.70;98428.94;232998;1217;139301;-59
2022/06/07 15:21:49;;;;;;;6.20;3.50;;;;;;;26.69;40.80;98425.19;233856;1216;139274;-59
2022/06/07 15:26:53;;;;;;;8.80;3.80;;;;;;;26.67;41.03;98423.45;233404;1217;139025;-60
2022/06/07 15:32:10;;;;;;;5.70;3.80;;;;;;;26.65;41.25;98438.20;234172;1216;139190;-59
2022/06/07 15:37:16;;;;;;;8.00;4.20;;;;;;;26.64;41.88;98435.40;233442;1217;138840;-60
2022/06/07 15:47:40;;;;;;;12.30;6.40;;;;;;;26.60;42.27;98430.74;233467;1216;139508;-59
2022/06/07 15:52:44;;;;;;;11.80;5.80;;;;;;;26.60;42.45;98430.29;233264;1217;138669;-62
2022/06/07 16:03:10;;;;;;;7.90;5.30;;;;;;;26.58;42.84;98423.73;233399;1217;139516;-60
2022/06/07 16:08:16;;;;;;;11.40;5.50;;;;;;;26.56;42.72;98419.76;233721;1217;139238;-61
2022/06/07 16:13:20;;;;;;;23.00;15.90;;;;;;;26.54;42.99;98412.89;233312;1217;138968;-61
2022/06/07 16:18:23;;;;;;;18.40;9.60;;;;;;;26.51;42.95;98404.05;233497;1217;139048;-60
2022/06/07 16:23:26;;;;;;;10.10;6.80;;;;;;;26.54;43.03;98404.15;233461;1217;139072;-59
2022/06/07 16:33:51;;;;;;;10.10;5.50;;;;;;;26.49;43.19;98393.56;233550;1217;138976;-60
2022/06/07 16:38:54;;;;;;;9.00;5.60;;;;;;;26.46;43.36;98388.44;233556;1217;138875;-61
2022/06/07 16:44:04;;;;;;;9.70;5.30;;;;;;;26.43;43.70;98388.17;233487;1217;138902;-61
2022/06/07 16:49:11;;;;;;;11.40;6.20;;;;;;;26.38;44.22;98388.81;233043;1217;139400;-60
2022/06/07 16:54:17;;;;;;;11.10;5.50;;;;;;;26.30;44.25;98390.34;233141;1217;139144;-60
2022/06/07 16:59:22;;;;;;;11.90;4.80;;;;;;;26.20;44.39;98388.00;233418;1217;139585;-60
2022/06/07 17:04:26;;;;;;;10.70;4.80;;;;;;;26.16;44.54;98391.88;233699;1217;139122;-60
2022/06/07 17:09:29;;;;;;;11.60;4.90;;;;;;;26.11;44.84;98396.15;233685;1215;138856;-61
2022/06/07 17:14:31;;;;;;;117.10;91.60;;;;;;;26.06;44.91;98398.05;233448;1217;139757;-61
2022/06/07 17:19:34;;;;;;;11.60;8.30;;;;;;;25.98;45.03;98394.34;233709;1217;139907;-62
2022/06/07 17:24:37;;;;;;;11.70;5.50;;;;;;;25.98;45.14;98399.71;233574;1217;139097;-63
2022/06/07 17:29:40;;;;;;;11.50;5.50;;;;;;;25.91;45.31;98407.48;233507;1217;140018;-61
2022/06/07 17:34:43;;;;;;;12.00;6.50;;;;;;;25.87;45.54;98418.89;233662;1217;140123;-61
2022/06/07 17:39:47;;;;;;;13.90;6.50;;;;;;;25.81;45.68;98434.17;233698;1217;139485;-62
2022/06/07 17:44:50;;;;;;;35.70;25.00;;;;;;;25.73;46.13;98443.87;233644;1217;139620;-60
2022/06/07 17:49:53;;;;;;;15.50;8.00;;;;;;;25.63;46.57;98450.69;233458;1216;139302;-61
2022/06/07 17:54:56;;;;;;;11.80;6.70;;;;;;;25.29;47.72;98451.81;233436;1217;139830;-60
2022/06/07 17:59:59;;;;;;;10.00;6.40;;;;;;;24.72;48.77;98464.89;233654;1217;139127;-60
2022/06/07 18:05:05;;;;;;;9.20;6.00;;;;;;;24.19;49.92;98477.14;233254;1217;141790;-59
2022/06/07 18:10:10;;;;;;;11.00;7.00;;;;;;;23.82;50.88;98469.94;233716;1217;139374;-60
2022/06/07 18:15:21;;;;;;;67.80;51.00;;;;;;;23.46;51.89;98470.75;233366;1217;139014;-61
2022/06/07 18:20:24;;;;;;;12.60;9.00;;;;;;;23.24;52.86;98463.10;233099;1216;139693;-61
2022/06/07 18:25:31;;;;;;;18.20;15.10;;;;;;;23.11;53.38;98468.23;232536;1217;139135;-60
2022/06/07 18:30:37;;;;;;;8.10;6.80;;;;;;;22.97;53.88;98472.38;232265;1217;138726;-61
2022/06/07 18:35:42;;;;;;;6.10;5.20;;;;;;;22.91;54.13;98483.67;232916;1216;139742;-60
2022/06/07 18:40:52;;;;;;;6.50;5.70;;;;;;;22.83;54.42;98488.58;233034;1217;141528;-61
2022/06/07 18:45:56;;;;;;;9.40;8.00;;;;;;;22.78;54.75;98497.42;233757;1217;139293;-60
2022/06/07 18:50:59;;;;;;;7.60;6.80;;;;;;;22.73;55.06;98499.92;233578;1217;138956;-60
2022/06/07 18:56:05;;;;;;;7.40;5.70;;;;;;;22.72;55.27;98504.78;233471;1217;139556;-60
2022/06/07 19:01:25;;;;;;;8.30;6.00;;;;;;;22.72;55.38;98514.42;233590;1217;139246;-59
2022/06/07 19:06:31;;;;;;;7.00;6.10;;;;;;;22.70;55.61;98516.04;233620;1217;138860;-60
2022/06/07 19:11:40;;;;;;;75.90;61.50;;;;;;;22.66;55.74;98524.48;233455;1217;138876;-59
2022/06/07 19:16:51;;;;;;;9.10;6.40;;;;;;;22.68;56.15;98538.70;233380;1216;140487;-61
2022/06/07 19:22:01;;;;;;;7.80;5.70;;;;;;;22.70;56.19;98543.70;232940;1217;138984;-62
2022/06/07 19:27:04;;;;;;;8.80;6.50;;;;;;;22.68;56.20;98542.71;233371;1217;139003;-61
2022/06/07 19:32:08;;;;;;;8.80;7.10;;;;;;;22.62;56.49;98534.59;233692;1217;139141;-61
2022/06/07 19:37:11;;;;;;;6.60;5.00;;;;;;;22.60;56.55;98526.89;233565;1216;138682;-60
2022/06/07 19:42:17;;;;;;;6.80;4.70;;;;;;;22.56;56.57;98530.98;233642;1216;139463;-62
2022/06/07 19:47:20;;;;;;;6.60;4.90;;;;;;;22.54;56.61;98526.83;232081;1217;138611;-62
2022/06/07 19:52:24;;;;;;;45.00;36.70;;;;;;;22.53;56.70;98520.34;233151;1216;139693;-62
2022/06/07 19:57:27;;;;;;;9.20;5.90;;;;;;;22.55;56.85;98531.98;233519;1216;139640;-62
2022/06/07 20:02:30;;;;;;;8.70;6.60;;;;;;;22.55;57.17;98522.75;233617;1217;138443;-60
2022/06/07 20:07:33;;;;;;;34.10;28.40;;;;;;;22.61;57.18;98531.23;232791;1217;139909;-60
2022/06/07 20:12:36;;;;;;;9.20;6.10;;;;;;;22.61;57.03;98537.21;232960;1217;139802;-60
2022/06/07 20:17:40;;;;;;;7.70;5.50;;;;;;;22.53;57.11;98533.25;233497;1217;138739;-60
2022/06/07 20:22:43;;;;;;;6.50;5.60;;;;;;;22.42;56.95;98552.19;233180;1215;139317;-59
2022/06/07 20:27:47;;;;;;;81.10;59.60;;;;;;;22.34;57.32;98552.81;233739;1217;139054;-59
2022/06/07 20:32:50;;;;;;;10.40;5.20;;;;;;;22.31;57.46;98551.31;233533;1217;139741;-59
2022/06/07 20:37:56;;;;;;;7.60;5.40;;;;;;;22.29;57.72;98557.83;233457;1217;139133;-61
2022/06/07 20:42:59;;;;;;;12.20;5.70;;;;;;;22.31;57.78;98556.53;233673;1217;139321;-60
2022/06/07 20:48:06;;;;;;;8.40;5.70;;;;;;;22.31;57.95;98570.86;233613;1217;140254;-60
2022/06/07 20:53:10;;;;;;;7.00;6.30;;;;;;;22.24;58.20;98574.68;233672;1217;138790;-60
2022/06/07 20:58:14;;;;;;;10.00;6.30;;;;;;;22.11;58.22;98584.16;233742;1217;138928;-60
2022/06/07 21:03:17;;;;;;;10.40;5.80;;;;;;;21.95;58.48;98577.55;233710;1217;139240;-59
2022/06/07 21:08:20;;;;;;;8.60;6.30;;;;;;;21.86;58.76;98578.02;233636;1217;142217;-59
2022/06/07 21:13:23;;;;;;;12.00;7.20;;;;;;;21.83;59.00;98580.45;233435;1217;138946;-61
2022/06/07 21:18:26;;;;;;;11.40;6.90;;;;;;;21.77;59.18;98575.67;233582;1217;140780;-60
2022/06/07 21:23:36;;;;;;;9.80;8.00;;;;;;;21.69;59.31;98577.31;233667;1217;139831;-61
2022/06/07 21:28:40;;;;;;;11.70;8.30;;;;;;;21.65;59.57;98580.00;232515;1217;139277;-61
2022/06/07 21:33:43;;;;;;;12.40;7.10;;;;;;;21.61;59.62;98582.23;233819;1216;139057;-60
2022/06/07 21:38:48;;;;;;;10.30;7.10;;;;;;;21.62;59.69;98586.23;233658;1217;140350;-60
2022/06/07 21:43:51;;;;;;;10.30;7.10;;;;;;;21.58;59.64;98588.69;233619;1217;139412;-60
2022/06/07 21:48:54;;;;;;;10.40;7.20;;;;;;;21.55;59.96;98579.58;233348;1216;138977;-60
2022/06/07 21:53:57;;;;;;;12.20;7.40;;;;;;;21.53;60.05;98584.30;232993;1217;138805;-59
2022/06/07 21:59:00;;;;;;;11.80;7.40;;;;;;;21.50;60.02;98589.07;233311;1217;139338;-61
2022/06/07 22:04:03;;;;;;;10.70;7.30;;;;;;;21.40;59.97;98592.27;233699;1217;140932;-60
2022/06/07 22:09:06;;;;;;;11.10;7.20;;;;;;;21.38;60.22;98589.06;233667;1217;139930;-60
2022/06/07 22:14:09;;;;;;;10.80;8.60;;;;;;;21.37;60.51;98586.84;233579;1217;139200;-60
2022/06/07 22:19:12;;;;;;;11.40;7.90;;;;;;;21.36;60.50;98589.94;233193;1217;208747;-60
2022/06/07 22:24:15;;;;;;;9.40;8.40;;;;;;;21.34;60.68;98587.48;233548;1216;139235;-60
2022/06/07 22:34:41;;;;;;;12.90;8.20;;;;;;;21.22;60.86;98580.82;233538;1217;139606;-60
2022/06/07 22:39:44;;;;;;;10.80;7.70;;;;;;;21.20;60.90;98580.23;233426;1217;139761;-60
2022/06/07 22:44:48;;;;;;;9.20;7.60;;;;;;;21.24;61.00;98573.63;233594;1217;140536;-62
2022/06/07 22:49:51;;;;;;;11.60;8.50;;;;;;;21.23;61.29;98569.45;233699;1217;140422;-60
2022/06/07 22:54:58;;;;;;;10.50;8.00;;;;;;;21.24;61.28;98569.29;233779;1217;139376;-60
2022/06/07 23:00:06;;;;;;;10.70;8.30;;;;;;;21.24;61.31;98573.92;233695;1216;139024;-61
2022/06/07 23:05:08;;;;;;;8.60;7.50;;;;;;;21.25;61.38;98579.75;233105;1217;139555;-61
2022/06/07 23:10:12;;;;;;;11.70;8.60;;;;;;;21.25;61.40;98574.27;233774;1217;140088;-61
2022/06/07 23:20:36;;;;;;;10.30;8.50;;;;;;;21.26;61.37;98570.70;233651;1217;139132;-60
2022/06/07 23:25:40;;;;;;;10.20;8.00;;;;;;;21.19;61.32;98563.41;233595;1217;138980;-60
2022/06/07 23:30:43;;;;;;;10.90;8.50;;;;;;;21.14;61.40;98564.48;233628;1215;138908;-60
2022/06/07 23:35:46;;;;;;;9.70;8.40;;;;;;;21.09;61.56;98565.94;233489;1217;139336;-61
2022/06/07 23:40:49;;;;;;;8.80;7.10;;;;;;;21.15;61.58;98560.63;233663;1217;139830;-60
2022/06/07 23:45:52;;;;;;;9.30;6.90;;;;;;;21.20;61.42;98554.95;233523;1217;140026;-61
2022/06/07 23:50:55;;;;;;;7.60;6.30;;;;;;;21.24;61.36;98554.33;233458;1217;138763;-60
2022/06/07 23:55:59;;;;;;;7.40;6.40;;;;;;;21.21;61.09;98552.31;233510;1217;138802;-60
